Página principal
METAR-TAF:

METAR-TAF

Aeroportos :

Gabès, Tunísia

latitude: 33-53N, longitude: 010-06E, altura: 4 m

Observação actual do tempo

O boletim foi feito há 46 minutos, às 12:00 UTC
Vento 4 kt de nor-noroeste, variando entre oes-sudoeste e nordeste
Temperatura 17°C
Humidade 34%
Pressão 1028 hPa
Visibilidade 10 km ou mais
sem nuvens abaixo de 1500 metros e sem cumulonimbus

METAR: DTTG 181200Z 33004KT 250V050 CAVOK 17/01 Q1028 NOSIG

Hora: 13:46 (12:46 UTC)

Previsão

O boletim foi feito há 16 minutos, às 12:30 UTC
Previsão válida de 18 às 13 UTC a 18 às 22 UTC
Vento 4 kt de nor-noroeste
Visibilidade 10 km ou mais
sem nuvens abaixo de 1500 metros e sem cumulonimbus

TAF: DTTG 181230Z 1813/1822 33004KT CAVOK

Observações e previsões do tempo de mais de 4000 aeroportos (mensagens METAR e TAF).

As estações disponíveis são os pontos amarelos e vermelhos sobre o mapa.

Mova o rato sobre o mapa para ver o nome da estação.

Depois clique no ponto para visualizar as observações e previsões meteorológicas.

Para alterar o mapa : clique nos botões verdes com uma cruz preta para aumentar o zoom; no botão verde com uma pitada de zoom; ou nas setas verdes para mapas adjacentes.


METAR-TAF: